Terminal Aerodrome Forecast
Issued by NWS

Home | Current Version | Previous Version | Text Only | Print | Product List | Glossary On
Versions: 1 2 3 4 5 6 7 8 9 10 11 12 13 14 15
000
FTUS45 KABQ 031700 RRA
TAFAEG
TAF
KAEG 031758Z 0318/0418 19006KT P6SM FEW100 FEW200
     FM032300 23012G16KT P6SM VCTS SCT080CB
      TEMPO 0323/0401 VRB25G35KT -TSRA BKN070CB
     FM040100 31008KT P6SM VCSH BKN090
     FM040400 32007KT P6SM SCT070 BKN120
     FM040800 VRB05KT P6SM FEW070 SCT120=

USA.gov is the U.S. government's official web portal to all federal, state and local government web resources and services.